Time;durP1;ratioP1;P1;durP2;ratioP2;P2;SDS_P1;SDS_P2;PMS_P1;PMS_P2;Temp;Humidity;BMP_temperature;BMP_pressure;BME280_temperature;BME280_humidity;BME280_pressure;Samples;Min_cycle;Max_cycle;Signal;HPM_P1;HPM_P2
2021/04/18 00:00:18;;;;;;;18.90;8.73;;;;;;;8.54;63.45;99002.53;1806173;79;21239;-81
2021/04/18 00:02:49;;;;;;;17.87;8.88;;;;;;;8.53;63.55;99000.39;1808709;79;21124;-81
2021/04/18 00:05:21;;;;;;;17.80;8.15;;;;;;;8.51;61.46;99006.02;1744954;82;21168;-82
2021/04/18 00:07:51;;;;;;;17.35;9.10;;;;;;;8.50;64.36;99003.02;1739248;82;21210;-81
2021/04/18 00:10:20;;;;;;;16.45;9.10;;;;;;;8.51;64.54;99004.72;1790964;79;21168;-82
2021/04/18 00:12:48;;;;;;;16.12;8.90;;;;;;;8.51;63.48;99004.72;1802898;79;21157;-81
2021/04/18 00:15:16;;;;;;;21.75;9.85;;;;;;;8.55;63.48;99000.34;1807748;79;21311;-80
2021/04/18 00:17:43;;;;;;;19.48;9.13;;;;;;;8.51;63.97;98993.05;1799571;79;21284;-82
2021/04/18 00:20:12;;;;;;;19.15;8.10;;;;;;;8.50;65.53;98993.11;1803675;79;21103;-82
2021/04/18 00:22:41;;;;;;;18.37;8.45;;;;;;;8.52;64.35;99001.70;1784514;79;21316;-82
2021/04/18 00:25:11;;;;;;;18.90;8.98;;;;;;;8.52;65.73;99000.41;1798002;79;21133;-80
2021/04/18 00:27:40;;;;;;;16.23;9.73;;;;;;;8.49;65.81;98997.86;1785714;79;21641;-82
2021/04/18 00:30:11;;;;;;;15.85;8.50;;;;;;;8.47;64.87;98995.73;1805166;79;22357;-84
2021/04/18 00:32:40;;;;;;;16.40;9.40;;;;;;;8.48;64.69;98990.98;1726627;82;21167;-83
2021/04/18 00:35:09;;;;;;;21.52;9.98;;;;;;;8.49;64.71;98989.64;1814358;79;21273;-82
2021/04/18 00:37:42;;;;;;;21.02;10.93;;;;;;;8.49;64.40;98990.94;1722924;82;21115;-81
2021/04/18 00:40:20;;;;;;;24.60;11.95;;;;;;;8.46;64.76;98984.98;1802528;79;21236;-81
2021/04/18 00:42:50;;;;;;;18.70;10.20;;;;;;;8.40;65.01;98989.80;1804675;79;21157;-83
2021/04/18 00:45:20;;;;;;;18.00;10.10;;;;;;;8.38;64.90;98982.94;1815737;79;21126;-82
2021/04/18 00:47:52;;;;;;;22.95;10.48;;;;;;;8.34;67.39;98983.43;1744009;82;21191;-81
2021/04/18 00:50:29;;;;;;;19.30;9.88;;;;;;;8.31;64.72;98979.14;1744590;82;21166;-82
2021/04/18 00:52:58;;;;;;;16.32;7.80;;;;;;;8.31;64.22;98978.29;1735352;82;22412;-81
2021/04/18 00:55:27;;;;;;;15.78;7.78;;;;;;;8.26;64.58;98977.09;1777222;80;21624;-83
2021/04/18 00:57:57;;;;;;;15.53;8.25;;;;;;;8.26;64.41;98980.97;1753878;81;21146;-81
2021/04/18 01:00:26;;;;;;;13.93;7.58;;;;;;;8.25;64.76;98980.54;1795236;79;21298;-81
2021/04/18 01:02:55;;;;;;;17.75;8.70;;;;;;;8.26;65.53;98978.83;1815331;79;21248;-81
2021/04/18 01:05:23;;;;;;;15.85;8.58;;;;;;;8.25;66.59;98982.28;1805861;79;21287;-82
2021/04/18 01:07:52;;;;;;;18.92;10.13;;;;;;;8.22;66.33;98977.18;1790490;79;21260;-82
2021/04/18 01:10:21;;;;;;;21.15;10.32;;;;;;;8.22;63.89;98979.77;1798942;79;22336;-82
2021/04/18 01:12:49;;;;;;;22.15;11.28;;;;;;;8.14;63.77;98974.72;1805788;79;22082;-82
2021/04/18 01:15:17;;;;;;;19.23;10.93;;;;;;;8.06;64.19;98972.25;1764954;80;21288;-82
2021/04/18 01:17:46;;;;;;;23.87;10.93;;;;;;;8.01;67.61;98971.91;1763897;81;21189;-81
2021/04/18 01:20:19;;;;;;;25.23;12.93;;;;;;;7.93;66.43;98981.09;1760336;80;21145;-81
2021/04/18 01:22:49;;;;;;;24.82;12.73;;;;;;;7.86;69.16;98967.41;1740561;82;21743;-82
2021/04/18 01:25:29;;;;;;;25.62;12.58;;;;;;;7.91;67.92;98971.20;1810115;77;23411;-88
2021/04/18 01:28:02;;;;;;;26.27;12.05;;;;;;;7.86;65.97;98967.82;1795855;79;21289;-82
2021/04/18 01:30:29;;;;;;;25.55;12.75;;;;;;;7.82;67.48;98970.92;1821841;79;21156;-82
2021/04/18 01:33:01;;;;;;;22.35;12.37;;;;;;;7.76;69.71;98961.97;1802765;79;21264;-82
2021/04/18 01:35:30;;;;;;;26.37;11.70;;;;;;;7.79;69.16;98968.81;1805377;79;21164;-83
2021/04/18 01:37:58;;;;;;;23.50;11.53;;;;;;;7.77;68.02;98963.66;1817259;79;21284;-82
2021/04/18 01:40:26;;;;;;;22.75;11.53;;;;;;;7.84;66.90;98965.70;1806758;78;21259;-82
2021/04/18 01:42:54;;;;;;;22.17;11.28;;;;;;;7.80;67.92;98962.33;1803831;79;21256;-84
2021/04/18 01:45:23;;;;;;;22.07;11.63;;;;;;;7.86;66.89;98961.35;1819910;79;21284;-83
2021/04/18 01:47:52;;;;;;;29.40;12.58;;;;;;;7.86;67.85;98961.35;1816021;79;21156;-83
2021/04/18 01:50:20;;;;;;;23.80;12.60;;;;;;;7.91;67.13;98955.67;1819510;79;21261;-83
2021/04/18 01:52:49;;;;;;;27.77;14.10;;;;;;;7.91;67.87;98951.34;1814916;79;21280;-82
2021/04/18 01:55:19;;;;;;;26.48;13.70;;;;;;;7.92;67.44;98950.92;1818884;79;21292;-83
2021/04/18 01:57:48;;;;;;;26.23;14.47;;;;;;;7.95;67.45;98946.97;1786305;79;21287;-82
2021/04/18 02:00:18;;;;;;;29.77;15.98;;;;;;;7.90;67.65;98944.47;1767669;79;21307;-82
2021/04/18 02:02:58;;;;;;;30.05;15.60;;;;;;;7.87;67.71;98938.48;1803361;79;21312;-83
2021/04/18 02:05:41;;;;;;;27.37;14.05;;;;;;;7.91;67.41;98934.97;1817817;78;23095;-88
2021/04/18 02:08:13;;;;;;;33.30;15.28;;;;;;;7.83;68.59;98937.67;1811256;79;21260;-83
2021/04/18 02:10:41;;;;;;;24.87;11.90;;;;;;;7.83;67.35;98932.50;1819481;78;21339;-83
2021/04/18 02:13:09;;;;;;;20.45;10.65;;;;;;;7.83;67.39;98929.06;1787855;79;21283;-83
2021/04/18 02:15:54;;;;;;;23.10;9.93;;;;;;;7.86;67.72;98923.41;1821904;76;22895;-85
2021/04/18 02:18:23;;;;;;;22.95;9.85;;;;;;;7.86;67.18;98922.53;1813482;79;21243;-83
2021/04/18 02:20:52;;;;;;;17.27;6.95;;;;;;;7.86;68.95;98925.11;1784663;79;21276;-82
2021/04/18 02:23:20;;;;;;;12.78;7.08;;;;;;;7.86;68.87;98919.52;1804596;79;21278;-83
2021/04/18 02:25:49;;;;;;;12.93;6.75;;;;;;;7.83;68.81;98911.80;1821269;78;21128;-84
2021/04/18 02:28:17;;;;;;;12.03;6.30;;;;;;;7.82;69.10;98909.22;1809179;79;21283;-83
2021/04/18 02:30:44;;;;;;;13.55;6.55;;;;;;;7.85;68.80;98904.86;1790267;79;21266;-84
2021/04/18 02:33:12;;;;;;;12.85;6.55;;;;;;;7.86;68.93;98912.17;1797157;79;21282;-82
2021/04/18 02:35:41;;;;;;;14.58;7.35;;;;;;;7.82;68.60;98906.64;1783113;77;21254;-82
2021/04/18 02:38:08;;;;;;;9.40;5.45;;;;;;;7.82;68.27;98906.64;1775329;79;21318;-84
2021/04/18 02:40:36;;;;;;;12.73;6.67;;;;;;;7.79;69.06;98910.59;1814525;79;21259;-83
2021/04/18 02:43:03;;;;;;;12.15;5.78;;;;;;;7.77;69.06;98904.13;1796451;79;21310;-85
2021/04/18 02:45:31;;;;;;;11.33;5.78;;;;;;;7.80;67.79;98904.09;1773302;81;21287;-84
2021/04/18 02:47:59;;;;;;;11.40;6.12;;;;;;;7.75;68.94;98897.69;1785797;79;21287;-82
2021/04/18 02:50:27;;;;;;;11.93;5.80;;;;;;;7.75;68.30;98901.56;1819486;79;21286;-83
2021/04/18 02:52:54;;;;;;;12.93;5.75;;;;;;;7.76;68.52;98898.11;1805668;79;21311;-83
2021/04/18 02:55:22;;;;;;;11.93;6.55;;;;;;;7.76;69.03;98900.70;1790031;80;21322;-83
2021/04/18 02:57:54;;;;;;;12.33;6.87;;;;;;;7.78;69.44;98891.62;1795389;78;21160;-87
2021/04/18 03:00:22;;;;;;;11.12;6.50;;;;;;;7.77;68.85;98898.52;1821935;79;21291;-83
2021/04/18 03:02:51;;;;;;;15.75;6.28;;;;;;;7.79;68.17;98892.02;1813948;78;21290;-83
2021/04/18 03:05:19;;;;;;;13.60;6.67;;;;;;;7.77;68.83;98894.63;1813595;79;21241;-83
2021/04/18 03:07:48;;;;;;;13.05;6.75;;;;;;;7.76;68.74;98899.41;1822349;77;21282;-84
2021/04/18 03:10:16;;;;;;;13.55;7.42;;;;;;;7.77;68.84;98908.02;1867788;77;21260;-83
2021/04/18 03:12:43;;;;;;;15.78;8.85;;;;;;;7.76;68.27;98911.05;1840280;76;21116;-83
2021/04/18 03:15:13;;;;;;;16.55;8.88;;;;;;;7.77;67.12;98914.48;1784832;79;21310;-84
2021/04/18 03:17:42;;;;;;;22.77;10.10;;;;;;;7.71;67.24;98908.12;1790718;79;21156;-83
2021/04/18 03:20:13;;;;;;;18.27;9.83;;;;;;;7.65;67.57;98920.72;1787451;78;21568;-84
2021/04/18 03:22:42;;;;;;;16.93;9.70;;;;;;;7.66;67.68;98920.27;1784414;79;21178;-82
2021/04/18 03:25:12;;;;;;;18.07;10.03;;;;;;;7.61;68.66;98916.92;1788716;79;21270;-84
2021/04/18 03:27:41;;;;;;;18.17;9.43;;;;;;;7.55;67.69;98919.16;1790876;79;21290;-82
2021/04/18 03:30:12;;;;;;;19.77;9.90;;;;;;;7.51;69.24;98923.97;1805427;79;21262;-83
2021/04/18 03:32:42;;;;;;;17.65;9.68;;;;;;;7.49;67.33;98927.02;1784320;79;21262;-83
2021/04/18 03:35:11;;;;;;;18.27;9.13;;;;;;;7.44;68.07;98930.98;1796423;79;21262;-83
2021/04/18 03:37:39;;;;;;;19.30;8.90;;;;;;;7.43;68.70;98939.59;1769294;79;21228;-82
2021/04/18 03:40:08;;;;;;;18.25;8.80;;;;;;;7.45;68.99;98939.58;1778024;79;21256;-82
2021/04/18 03:42:35;;;;;;;21.70;9.03;;;;;;;7.47;68.13;98944.30;1790217;79;21282;-82
2021/04/18 03:45:05;;;;;;;17.05;8.58;;;;;;;7.48;68.23;98953.33;1809698;79;21275;-83
2021/04/18 03:47:33;;;;;;;21.05;9.48;;;;;;;7.50;68.20;98954.16;1795143;79;21307;-82
2021/04/18 03:50:13;;;;;;;17.37;9.23;;;;;;;7.59;68.12;98948.43;1860590;76;22916;-87
2021/04/18 03:52:49;;;;;;;18.32;8.83;;;;;;;7.59;67.97;98949.72;1745348;81;21149;-81
2021/04/18 03:55:17;;;;;;;19.45;9.33;;;;;;;7.61;67.90;98950.11;1746046;81;21743;-81
2021/04/18 03:57:45;;;;;;;17.00;9.25;;;;;;;7.59;68.11;98956.19;1768449;81;21286;-82
2021/04/18 04:00:13;;;;;;;17.00;9.15;;;;;;;7.60;68.54;98957.47;1797282;79;21300;-82
2021/04/18 04:02:44;;;;;;;18.05;9.13;;;;;;;7.58;68.13;98961.81;1770063;79;21719;-81
2021/04/18 04:05:14;;;;;;;17.30;9.93;;;;;;;7.59;67.53;98964.80;1760886;81;21122;-82
2021/04/18 04:07:42;;;;;;;16.40;8.83;;;;;;;7.58;68.29;98963.11;1763572;80;21589;-81
2021/04/18 04:10:10;;;;;;;15.95;8.98;;;;;;;7.58;67.56;98968.28;1747425;80;21302;-82
2021/04/18 04:12:38;;;;;;;17.02;9.53;;;;;;;7.50;68.58;98968.39;1727278;82;21282;-82
2021/04/18 04:15:07;;;;;;;16.00;9.30;;;;;;;7.46;67.99;98973.19;1727206;81;21180;-80
2021/04/18 04:17:36;;;;;;;16.00;8.68;;;;;;;7.46;67.55;98980.08;1755085;81;21184;-82
2021/04/18 04:20:14;;;;;;;19.10;10.93;;;;;;;7.49;68.73;98980.05;1796114;78;28225;-85
2021/04/18 04:23:01;;;;;;;18.50;9.93;;;;;;;7.51;67.77;98981.72;1749671;81;21279;-83
2021/04/18 04:25:29;;;;;;;19.07;9.53;;;;;;;7.42;69.16;98983.58;1770383;79;21802;-84
2021/04/18 04:27:57;;;;;;;19.55;8.50;;;;;;;7.41;69.48;98980.15;1812410;79;21258;-82
2021/04/18 04:30:25;;;;;;;17.48;9.10;;;;;;;7.30;69.80;98982.90;1817103;79;21913;-83
2021/04/18 04:32:52;;;;;;;17.92;9.18;;;;;;;7.34;69.54;98978.09;1800740;79;21311;-84
2021/04/18 04:35:21;;;;;;;18.57;9.15;;;;;;;7.38;68.70;98973.71;1807311;79;21327;-82
2021/04/18 04:37:48;;;;;;;19.35;9.88;;;;;;;7.41;69.23;98980.59;1800756;79;21132;-83
2021/04/18 04:40:16;;;;;;;16.00;8.80;;;;;;;7.43;69.02;98982.72;1804360;79;21172;-84
2021/04/18 04:42:44;;;;;;;16.57;8.98;;;;;;;7.47;68.84;98994.73;1730307;80;21157;-88
2021/04/18 04:45:12;;;;;;;20.25;9.25;;;;;;;7.51;68.90;99000.28;1741516;82;21304;-82
2021/04/18 04:47:39;;;;;;;17.65;9.80;;;;;;;7.54;68.66;98996.34;1738424;82;21610;-83
2021/04/18 04:50:09;;;;;;;22.48;10.90;;;;;;;7.56;68.83;98998.49;1743107;81;21281;-81
2021/04/18 04:52:37;;;;;;;19.37;9.58;;;;;;;7.52;69.24;98996.38;1749527;82;21266;-82
2021/04/18 04:55:05;;;;;;;19.12;10.25;;;;;;;7.55;68.56;99002.78;1703697;84;21336;-82
2021/04/18 04:57:33;;;;;;;22.27;10.20;;;;;;;7.54;68.62;99003.68;1740572;82;21322;-84
2021/04/18 05:00:00;;;;;;;22.10;10.85;;;;;;;7.55;68.92;99013.14;1738771;82;21278;-82
2021/04/18 05:02:27;;;;;;;18.20;10.13;;;;;;;7.55;68.30;99012.29;1748916;82;22282;-83
2021/04/18 05:04:55;;;;;;;17.98;9.70;;;;;;;7.53;67.92;99020.52;1747384;81;21748;-82
2021/04/18 05:07:22;;;;;;;17.98;9.98;;;;;;;7.53;68.58;99030.86;1743219;81;21366;-82
2021/04/18 05:09:50;;;;;;;21.62;10.50;;;;;;;7.54;68.83;99027.38;1719122;83;21888;-83
2021/04/18 05:12:17;;;;;;;20.68;10.55;;;;;;;7.49;69.02;99031.34;1729980;82;21294;-84
2021/04/18 05:14:46;;;;;;;22.67;10.40;;;;;;;7.51;67.26;99033.91;1740532;82;22401;-82
2021/04/18 05:17:13;;;;;;;18.48;10.50;;;;;;;7.45;69.16;99035.28;1703184;84;21321;-83
2021/04/18 05:19:41;;;;;;;18.95;9.98;;;;;;;7.47;69.58;99043.88;1748566;82;21122;-84
2021/04/18 05:22:08;;;;;;;19.77;10.40;;;;;;;7.46;69.34;99039.16;1749066;81;21311;-83
2021/04/18 05:24:36;;;;;;;20.77;11.10;;;;;;;7.50;71.47;99052.88;1676435;83;21281;-82
2021/04/18 05:27:04;;;;;;;22.05;11.22;;;;;;;7.52;70.86;99049.83;1714980;82;21310;-82
2021/04/18 05:29:31;;;;;;;23.25;10.63;;;;;;;7.52;69.73;99048.13;1751392;81;21344;-82
2021/04/18 05:31:59;;;;;;;20.30;12.00;;;;;;;7.57;67.96;99048.89;1734832;82;21306;-84
2021/04/18 05:34:27;;;;;;;24.87;12.47;;;;;;;7.54;68.07;99051.95;1694965;84;21346;-83
2021/04/18 05:36:54;;;;;;;25.72;11.63;;;;;;;7.53;68.75;99053.70;1737877;82;21321;-84
2021/04/18 05:39:22;;;;;;;22.77;11.83;;;;;;;7.53;69.78;99048.97;1747611;82;21301;-83
2021/04/18 05:41:49;;;;;;;19.48;10.13;;;;;;;7.56;69.42;99047.65;1704297;82;21230;-84
2021/04/18 05:44:17;;;;;;;22.30;10.85;;;;;;;7.59;70.27;99046.74;1737313;83;21252;-84
2021/04/18 05:46:45;;;;;;;25.62;11.55;;;;;;;7.59;73.34;99051.47;1737215;83;21267;-84
2021/04/18 05:49:13;;;;;;;27.05;11.97;;;;;;;7.66;71.06;99052.23;1759128;81;21279;-84
2021/04/18 05:51:41;;;;;;;26.77;13.13;;;;;;;7.65;72.21;99045.36;1733585;83;21165;-84
2021/04/18 05:54:08;;;;;;;29.40;13.48;;;;;;;7.68;71.53;99037.12;1728023;83;21268;-84
2021/04/18 05:56:35;;;;;;;22.93;12.85;;;;;;;7.73;71.96;99035.30;1729404;82;21281;-83
2021/04/18 05:59:03;;;;;;;24.67;12.70;;;;;;;7.75;72.76;99028.82;1727876;82;21343;-83
2021/04/18 06:01:32;;;;;;;25.00;13.00;;;;;;;7.85;72.44;99028.25;1733758;83;21283;-83
2021/04/18 06:04:01;;;;;;;24.18;14.07;;;;;;;7.87;72.56;99027.34;1723088;83;21309;-84
2021/04/18 06:06:29;;;;;;;22.40;12.33;;;;;;;7.92;72.29;99026.84;1736491;81;21295;-83
2021/04/18 06:08:56;;;;;;;23.67;12.43;;;;;;;8.07;72.11;99025.73;1736705;82;21288;-84
2021/04/18 06:11:23;;;;;;;21.27;12.70;;;;;;;8.20;71.86;99030.70;1736488;83;21276;-85
2021/04/18 06:13:51;;;;;;;22.27;11.40;;;;;;;8.32;72.93;99027.48;1736402;83;21251;-84
2021/04/18 06:16:19;;;;;;;24.87;12.58;;;;;;;8.46;71.43;99025.14;1736315;83;21272;-85
2021/04/18 06:18:47;;;;;;;24.80;12.47;;;;;;;8.54;70.97;99018.92;1736467;83;21355;-83
2021/04/18 06:21:15;;;;;;;27.40;13.48;;;;;;;8.59;70.63;99020.13;1733260;83;21256;-83
2021/04/18 06:23:43;;;;;;;28.32;13.98;;;;;;;8.66;71.20;99023.03;1727393;83;21279;-84
2021/04/18 06:26:10;;;;;;;23.42;12.78;;;;;;;8.72;71.14;99014.30;1707668;83;21145;-84
2021/04/18 06:28:38;;;;;;;28.83;13.13;;;;;;;8.73;69.77;99023.76;1734769;83;21138;-85
2021/04/18 06:31:05;;;;;;;26.73;13.62;;;;;;;8.80;69.74;99018.04;1723551;81;21307;-84
2021/04/18 06:33:33;;;;;;;30.82;14.80;;;;;;;8.89;69.80;99012.23;1737019;83;21149;-85
2021/04/18 06:36:03;;;;;;;33.40;14.30;;;;;;;8.95;70.38;99017.30;1737069;83;21142;-83
2021/04/18 06:38:30;;;;;;;26.02;11.90;;;;;;;8.95;70.77;99012.53;1736736;83;21200;-84
2021/04/18 06:40:59;;;;;;;25.57;11.28;;;;;;;8.99;69.65;99006.85;1735254;82;21176;-84
2021/04/18 06:43:27;;;;;;;25.90;11.22;;;;;;;8.99;69.99;99019.81;1694315;84;21143;-84
2021/04/18 06:45:54;;;;;;;26.30;12.13;;;;;;;8.96;70.00;99020.29;1733243;82;21306;-83
2021/04/18 06:48:24;;;;;;;20.20;11.38;;;;;;;9.00;70.08;99012.46;1694442;84;21169;-85
2021/04/18 06:50:54;;;;;;;27.07;12.93;;;;;;;8.98;70.70;99019.42;1724931;83;21177;-84
2021/04/18 06:53:22;;;;;;;21.80;11.50;;;;;;;9.06;69.59;99021.41;1724978;83;21169;-84
2021/04/18 06:55:49;;;;;;;21.87;12.43;;;;;;;9.05;69.00;99017.97;1694394;84;21271;-84
2021/04/18 06:58:17;;;;;;;23.45;13.05;;;;;;;9.04;69.03;99013.66;1722111;82;21210;-83
2021/04/18 07:00:45;;;;;;;18.95;10.38;;;;;;;9.03;70.06;99014.98;1668091;86;21317;-85
2021/04/18 07:03:22;;;;;;;17.12;9.85;;;;;;;9.06;69.89;99017.08;1731491;82;21437;-84
2021/04/18 07:05:49;;;;;;;28.67;14.53;;;;;;;9.13;68.92;99026.45;1696597;83;21152;-85
2021/04/18 07:08:30;;;;;;;26.02;13.93;;;;;;;9.13;69.08;99023.86;1688219;85;21280;-84
2021/04/18 07:11:20;;;;;;;18.65;10.43;;;;;;;9.12;69.04;99026.02;1694797;85;21316;-85
2021/04/18 07:13:48;;;;;;;23.25;10.28;;;;;;;9.11;68.68;99033.83;1733955;82;21302;-84
2021/04/18 07:16:28;;;;;;;21.82;11.22;;;;;;;9.08;68.49;99028.72;1687229;85;21241;-85
2021/04/18 07:18:56;;;;;;;19.15;11.28;;;;;;;9.05;68.82;99022.28;1664352;86;21277;-85
2021/04/18 07:21:25;;;;;;;25.72;11.95;;;;;;;9.07;68.32;99021.81;1727012;81;21286;-84
2021/04/18 07:24:00;;;;;;;19.55;11.28;;;;;;;9.06;68.54;99020.97;1700644;82;21144;-86
2021/04/18 07:26:28;;;;;;;15.25;8.03;;;;;;;9.11;69.17;99027.34;1727669;82;21216;-85
2021/04/18 07:29:15;;;;;;;11.83;6.87;;;;;;;9.13;68.57;99025.58;1741715;82;21148;-85
2021/04/18 07:31:44;;;;;;;15.60;6.92;;;;;;;9.14;67.18;99028.14;1692514;85;21299;-83
2021/04/18 07:34:17;;;;;;;13.13;7.08;;;;;;;9.32;69.03;99023.47;1711961;83;21301;-85
2021/04/18 07:36:51;;;;;;;13.68;6.85;;;;;;;9.50;68.54;99032.14;1713879;82;21124;-83
2021/04/18 07:39:19;;;;;;;15.15;6.97;;;;;;;9.65;67.72;99034.86;1657068;86;21150;-83
2021/04/18 07:41:50;;;;;;;12.50;7.10;;;;;;;9.75;65.26;99029.88;1694398;84;21271;-85
2021/04/18 07:44:19;;;;;;;13.15;7.15;;;;;;;9.86;65.82;99023.12;1696844;85;21204;-84
2021/04/18 07:46:51;;;;;;;12.23;6.60;;;;;;;9.98;66.00;99027.17;1682918;85;21257;-82
2021/04/18 07:49:20;;;;;;;14.80;6.83;;;;;;;10.01;64.11;99027.11;1736267;82;21290;-82
2021/04/18 07:51:49;;;;;;;11.83;6.67;;;;;;;10.09;65.19;99030.38;1697001;84;21291;-83
2021/04/18 07:54:18;;;;;;;13.43;7.90;;;;;;;10.19;65.25;99028.87;1696813;85;21308;-82
2021/04/18 07:56:48;;;;;;;14.25;7.60;;;;;;;10.24;64.85;99025.23;1697382;84;21326;-83
2021/04/18 07:59:20;;;;;;;13.70;7.35;;;;;;;10.30;64.81;99026.87;1730846;81;21351;-83
2021/04/18 08:01:47;;;;;;;11.28;6.58;;;;;;;10.40;65.16;99024.89;1744306;82;21323;-81
2021/04/18 08:04:17;;;;;;;12.30;6.20;;;;;;;10.32;64.42;99029.83;1738014;82;21750;-81
2021/04/18 08:06:45;;;;;;;16.42;6.42;;;;;;;10.34;64.31;99028.08;1689438;85;21298;-82
2021/04/18 08:09:21;;;;;;;9.63;6.17;;;;;;;10.36;64.45;99029.30;1740380;82;21277;-82
2021/04/18 08:12:15;;;;;;;8.68;4.58;;;;;;;10.41;65.04;99013.62;1702508;82;21222;-82
2021/04/18 08:14:47;;;;;;;;;;;;;;;10.46;64.73;99013.88;1693739;84;21298;-82
2021/04/18 08:17:19;;;;;;;7.80;3.72;;;;;;;10.48;63.67;99018.59;1688118;84;20802;-84
2021/04/18 08:20:00;;;;;;;6.15;3.15;;;;;;;10.55;63.67;99023.20;1731314;82;21298;-82
2021/04/18 08:23:09;;;;;;;7.50;3.60;;;;;;;10.62;63.72;99027.33;1666799;85;21198;-83
2021/04/18 08:25:57;;;;;;;12.03;3.92;;;;;;;10.69;62.99;99031.94;1736653;82;21291;-82
2021/04/18 08:28:25;;;;;;;10.20;4.35;;;;;;;10.74;62.38;99030.05;1730767;82;21222;-83
2021/04/18 08:31:04;;;;;;;9.30;4.10;;;;;;;10.74;61.95;99030.93;1735992;82;21146;-80
2021/04/18 08:33:44;;;;;;;11.60;3.95;;;;;;;10.78;61.93;99025.17;1720312;82;21309;-83
2021/04/18 08:36:29;;;;;;;9.33;4.10;;;;;;;10.81;60.58;99026.41;1728727;82;21135;-81
2021/04/18 08:39:09;;;;;;;10.70;4.37;;;;;;;10.95;61.72;99017.77;1695409;84;21322;-82
2021/04/18 08:41:49;;;;;;;9.05;4.40;;;;;;;11.03;60.73;99018.86;1719913;81;21271;-82
2021/04/18 08:44:37;;;;;;;7.97;4.22;;;;;;;11.16;61.46;99019.38;1724485;82;21171;-82
2021/04/18 08:47:15;;;;;;;9.20;4.08;;;;;;;11.25;60.99;99020.40;1697143;84;21305;-83
2021/04/18 08:49:46;;;;;;;6.20;3.20;;;;;;;11.34;60.91;99024.05;1725467;82;21171;-80
2021/04/18 08:52:25;;;;;;;5.53;3.15;;;;;;;11.47;60.32;99022.38;1726384;82;21269;-81
2021/04/18 08:54:56;;;;;;;6.75;3.10;;;;;;;11.64;60.64;99025.33;1723401;82;21718;-81
2021/04/18 08:57:29;;;;;;;6.62;3.12;;;;;;;11.66;59.45;99005.30;1718854;81;21174;-83
2021/04/18 09:00:00;;;;;;;6.55;3.22;;;;;;;11.86;59.15;99023.37;1690456;85;21300;-81
2021/04/18 09:02:29;;;;;;;4.80;3.10;;;;;;;12.08;59.88;99023.56;1736503;81;21302;-82
2021/04/18 09:05:00;;;;;;;6.53;3.60;;;;;;;12.25;58.49;99021.70;1691855;84;21311;-82
2021/04/18 09:07:33;;;;;;;7.62;3.40;;;;;;;12.19;58.71;99016.69;1688996;85;21158;-82
2021/04/18 09:10:06;;;;;;;7.33;3.72;;;;;;;12.14;58.31;99016.39;1716560;82;21580;-86
2021/04/18 09:12:34;;;;;;;7.83;2.90;;;;;;;12.10;57.01;99023.91;1737342;82;21318;-81
2021/04/18 09:15:04;;;;;;;6.05;3.30;;;;;;;12.09;56.87;99020.05;1693304;85;21272;-82
2021/04/18 09:17:34;;;;;;;8.83;3.40;;;;;;;12.00;55.78;99021.66;1732777;82;21317;-82
2021/04/18 09:20:09;;;;;;;6.58;3.62;;;;;;;12.02;57.21;99022.47;1688831;85;21286;-82
2021/04/18 09:22:40;;;;;;;6.10;3.40;;;;;;;11.80;54.98;99015.72;1734646;82;21296;-82
2021/04/18 09:25:15;;;;;;;9.25;3.90;;;;;;;11.52;55.67;99016.14;1728932;82;21159;-82
2021/04/18 09:27:46;;;;;;;5.47;2.90;;;;;;;11.37;56.59;99017.05;1684755;85;21175;-80
2021/04/18 09:30:24;;;;;;;11.15;4.40;;;;;;;11.23;56.83;99009.64;1676770;85;21180;-81
2021/04/18 09:32:55;;;;;;;10.63;4.67;;;;;;;11.30;57.34;99016.35;1683245;85;21674;-82
2021/04/18 09:35:25;;;;;;;13.38;6.60;;;;;;;11.21;56.54;99023.98;1675323;85;21183;-83
2021/04/18 09:38:05;;;;;;;12.75;5.05;;;;;;;11.20;56.96;99023.60;1739447;82;21270;-82
2021/04/18 09:40:35;;;;;;;7.37;3.72;;;;;;;11.13;57.60;99022.91;1675794;84;21275;-83
2021/04/18 09:43:07;;;;;;;10.53;4.80;;;;;;;11.16;57.94;99018.08;1732821;82;21235;-82
2021/04/18 09:45:36;;;;;;;8.40;4.17;;;;;;;11.22;57.88;99028.73;1736483;82;21954;-84
2021/04/18 09:48:19;;;;;;;11.43;4.35;;;;;;;11.11;57.50;99031.66;1690105;85;21171;-84
2021/04/18 09:51:02;;;;;;;13.43;5.97;;;;;;;11.01;57.81;99031.06;1755888;81;21173;-82
2021/04/18 09:53:30;;;;;;;44.08;17.73;;;;;;;10.88;57.70;99026.66;1757277;81;21145;-83
2021/04/18 09:56:07;;;;;;;393.27;120.40;;;;;;;10.56;58.49;99015.80;1738322;81;21282;-83
2021/04/18 09:58:40;;;;;;;137.00;42.33;;;;;;;10.34;59.79;99020.70;1700643;83;21360;-83
2021/04/18 10:01:32;;;;;;;1077.30;362.52;;;;;;;10.25;60.21;99026.95;1736337;82;21294;-83
2021/04/18 10:04:00;;;;;;;415.52;126.05;;;;;;;10.22;61.03;99028.77;1723574;82;21988;-83
2021/04/18 10:06:45;;;;;;;320.67;95.42;;;;;;;10.31;61.27;99021.64;1697886;83;21285;-81
2021/04/18 10:09:12;;;;;;;355.62;103.22;;;;;;;10.45;61.20;99023.05;1644864;85;21170;-83
2021/04/18 10:11:39;;;;;;;93.78;32.30;;;;;;;10.57;62.90;99021.88;1722606;82;21297;-83
2021/04/18 10:14:12;;;;;;;526.73;177.22;;;;;;;10.68;61.64;99028.50;1692018;85;21196;-82
2021/04/18 10:16:41;;;;;;;242.87;82.97;;;;;;;10.81;62.26;99025.11;1724814;82;21164;-81
2021/04/18 10:19:19;;;;;;;257.87;89.62;;;;;;;10.87;61.96;99022.80;1676032;85;21864;-83
2021/04/18 10:22:10;;;;;;;193.75;79.10;;;;;;;10.98;61.59;99023.78;1728198;82;21148;-82
2021/04/18 10:24:48;;;;;;;46.53;23.95;;;;;;;11.08;61.77;99023.50;1688030;85;21706;-83
2021/04/18 10:27:22;;;;;;;26.97;14.78;;;;;;;11.18;60.99;99028.42;1728236;82;21688;-79
2021/04/18 10:29:50;;;;;;;33.90;19.27;;;;;;;11.12;61.08;99026.84;1690721;85;21128;-83
2021/04/18 10:32:19;;;;;;;19.45;12.45;;;;;;;11.17;61.01;99022.83;1737308;82;21302;-83
2021/04/18 10:34:50;;;;;;;10.32;5.97;;;;;;;11.15;60.58;99017.20;1694668;85;21155;-82
2021/04/18 10:37:18;;;;;;;8.85;5.50;;;;;;;11.12;59.91;99033.34;1723178;83;21311;-84
2021/04/18 10:39:46;;;;;;;8.05;4.72;;;;;;;11.04;59.93;99025.78;1710939;81;21186;-83
2021/04/18 10:42:14;;;;;;;9.30;5.15;;;;;;;11.03;59.50;99028.42;1740281;81;21294;-82
2021/04/18 10:44:42;;;;;;;9.75;4.50;;;;;;;11.13;59.99;99032.47;1683420;85;21313;-82
2021/04/18 10:47:17;;;;;;;6.67;4.00;;;;;;;11.04;59.73;99014.50;1680896;85;21281;-83
2021/04/18 10:49:48;;;;;;;7.58;4.22;;;;;;;10.99;59.19;99031.55;1722941;82;21175;-83
2021/04/18 10:52:15;;;;;;;10.60;5.28;;;;;;;11.10;59.51;99034.72;1737255;81;21171;-81
2021/04/18 10:54:43;;;;;;;9.53;4.55;;;;;;;11.06;60.29;99033.09;1687108;84;21180;-79
2021/04/18 10:57:10;;;;;;;8.70;5.53;;;;;;;11.09;60.02;99033.45;1686795;84;21215;-80
2021/04/18 10:59:38;;;;;;;7.00;4.30;;;;;;;11.16;59.95;99031.09;1691448;84;21211;-82
2021/04/18 11:02:05;;;;;;;6.28;4.00;;;;;;;11.11;59.86;99035.56;1729221;82;21182;-83
2021/04/18 11:04:33;;;;;;;6.28;3.83;;;;;;;11.12;59.40;99038.13;1724682;83;21289;-83
2021/04/18 11:07:02;;;;;;;8.28;4.42;;;;;;;11.22;60.48;99028.31;1698975;84;21876;-84
2021/04/18 11:09:31;;;;;;;10.30;5.17;;;;;;;11.39;59.71;99026.96;1726591;82;21192;-82
2021/04/18 11:11:58;;;;;;;7.90;4.22;;;;;;;11.44;61.28;99026.36;1734553;82;21763;-83
2021/04/18 11:14:26;;;;;;;9.03;4.87;;;;;;;11.65;59.86;99024.41;1729115;82;21317;-83
2021/04/18 11:16:55;;;;;;;8.03;4.47;;;;;;;11.75;60.73;99027.13;1737551;82;21193;-83
2021/04/18 11:19:23;;;;;;;7.00;4.00;;;;;;;11.79;58.60;99025.29;1722771;82;21311;-84
2021/04/18 11:21:51;;;;;;;9.18;4.37;;;;;;;11.73;59.03;99025.48;1725133;82;21294;-84
2021/04/18 11:24:18;;;;;;;7.67;4.42;;;;;;;11.74;59.46;99028.05;1728344;82;21292;-84
2021/04/18 11:26:46;;;;;;;8.48;4.15;;;;;;;11.76;59.19;99031.91;1728193;82;21125;-83
2021/04/18 11:29:14;;;;;;;9.30;4.65;;;;;;;11.62;58.68;99032.77;1712971;83;21321;-83
2021/04/18 11:31:44;;;;;;;7.42;3.60;;;;;;;11.64;58.94;99027.06;1692710;85;21108;-83
2021/04/18 11:34:11;;;;;;;7.97;3.95;;;;;;;11.48;57.66;99023.64;1716117;82;21206;-83
2021/04/18 11:36:39;;;;;;;8.25;4.40;;;;;;;11.40;58.06;99020.84;1731453;82;21151;-84
2021/04/18 11:39:07;;;;;;;6.40;3.60;;;;;;;11.38;58.44;99024.81;1691827;85;21345;-84
2021/04/18 11:41:35;;;;;;;8.95;3.77;;;;;;;11.44;57.50;99023.33;1732773;81;21299;-82
2021/04/18 11:44:04;;;;;;;7.47;4.37;;;;;;;11.33;57.51;99024.09;1730826;81;21301;-81